createdAt,value
2023-04-02T00:01:00.784Z,23.6
2023-04-02T00:02:03.044Z,23.3
2023-04-02T00:03:05.109Z,23.2
2023-04-02T00:04:07.785Z,23.3
2023-04-02T00:05:10.429Z,23.5
2023-04-02T00:06:12.511Z,23.2
2023-04-02T00:07:14.592Z,23.5
2023-04-02T00:08:16.474Z,23.4
2023-04-02T00:09:18.421Z,23.2
2023-04-02T00:10:20.202Z,23.3
2023-04-02T00:11:22.310Z,23.2
2023-04-02T00:12:24.405Z,23.3
2023-04-02T00:13:26.296Z,23.5
2023-04-02T00:14:28.183Z,23.3
2023-04-02T00:15:30.128Z,23.1
2023-04-02T00:16:32.285Z,23.3
2023-04-02T00:17:34.509Z,23.3
2023-04-02T00:18:36.585Z,23.2
2023-04-02T00:19:38.285Z,23.3
2023-04-02T00:20:40.524Z,23.4
2023-04-02T00:21:42.610Z,23.2
2023-04-02T00:22:44.504Z,23.4
2023-04-02T00:23:46.719Z,23.4
2023-04-02T00:24:48.884Z,23.4
2023-04-02T00:25:50.996Z,23.3
2023-04-02T00:26:53.101Z,23.4
2023-04-02T00:27:55.192Z,23.4
2023-04-02T00:28:57.294Z,23.4
2023-04-02T00:29:59.415Z,23.4
2023-04-02T00:31:01.573Z,23.4
2023-04-02T00:32:03.678Z,23.4
2023-04-02T00:33:06.213Z,23.5
2023-04-02T00:34:08.275Z,23.4
2023-04-02T00:35:10.013Z,23.4
2023-04-02T00:36:12.202Z,23.4
2023-04-02T00:37:14.324Z,23.3
2023-04-02T00:38:16.381Z,23.3
2023-04-02T00:39:18.468Z,23.3
2023-04-02T00:40:20.549Z,23.2
2023-04-02T00:41:22.463Z,23.4
2023-04-02T00:42:24.417Z,23.4
2023-04-02T00:43:26.542Z,23.5
2023-04-02T00:44:28.663Z,23.4
2023-04-02T00:45:30.790Z,23.4
2023-04-02T00:46:33.310Z,23.3
2023-04-02T00:47:35.358Z,23.6
2023-04-02T00:48:37.297Z,23.4
2023-04-02T00:49:39.397Z,23.3
2023-04-02T00:50:41.478Z,23.3
2023-04-02T00:51:43.671Z,23.5
2023-04-02T00:52:45.380Z,23.4
2023-04-02T00:53:47.508Z,23.6
2023-04-02T00:54:49.402Z,23.5
2023-04-02T00:55:51.335Z,23.5
2023-04-02T00:56:53.633Z,23.5
2023-04-02T00:57:55.645Z,23.5
2023-04-02T00:58:57.820Z,23.7
2023-04-02T00:59:59.732Z,23.4
2023-04-02T01:01:01.911Z,23.4
2023-04-02T01:02:04.661Z,23.6
2023-04-02T01:03:06.857Z,23.5
2023-04-02T01:04:10.161Z,23.4
2023-04-02T01:05:12.030Z,23.4
2023-04-02T01:06:14.294Z,23.6
2023-04-02T01:07:16.516Z,23.5
2023-04-02T01:08:18.718Z,23.5
2023-04-02T01:09:20.708Z,23.5
2023-04-02T01:10:22.802Z,23.5
2023-04-02T01:11:25.320Z,23.5
2023-04-02T01:12:27.396Z,23.5
2023-04-02T01:13:29.274Z,23.4
2023-04-02T01:14:31.166Z,23.6
2023-04-02T01:15:33.524Z,23.5
2023-04-02T01:16:37.120Z,23.3
2023-04-02T01:17:39.262Z,23.6
2023-04-02T01:18:41.512Z,23.6
2023-04-02T01:19:43.412Z,23.5
2023-04-02T01:20:45.305Z,23.6
2023-04-02T01:21:47.547Z,23.7
2023-04-02T01:22:49.737Z,23.5
2023-04-02T01:23:51.646Z,23.5
2023-04-02T01:24:53.751Z,23.5
2023-04-02T01:25:55.831Z,23.5
2023-04-02T01:26:57.745Z,23.7
2023-04-02T01:27:59.746Z,23.5
2023-04-02T01:29:01.867Z,23.8
2023-04-02T01:30:03.962Z,23.6
2023-04-02T01:31:05.959Z,23.5
2023-04-02T01:32:08.385Z,23.5
2023-04-02T01:33:10.516Z,23.7
2023-04-02T01:34:12.195Z,23.7
2023-04-02T01:35:14.129Z,23.6
2023-04-02T01:36:16.040Z,23.5
2023-04-02T01:37:18.256Z,23.5
2023-04-02T01:38:20.489Z,23.5
2023-04-02T01:39:22.563Z,23.5
2023-04-02T01:40:24.647Z,23.5
2023-04-02T01:41:26.725Z,23.4
2023-04-02T01:42:28.834Z,23.7
2023-04-02T01:43:30.906Z,23.5
2023-04-02T01:44:32.809Z,23.7
2023-04-02T01:45:35.046Z,23.4
2023-04-02T01:46:38.612Z,23.6
2023-04-02T01:47:40.944Z,23.6
2023-04-02T01:48:43.347Z,23.7
2023-04-02T01:49:45.223Z,23.6
2023-04-02T01:50:47.105Z,23.8
2023-04-02T01:51:48.986Z,23.6
2023-04-02T01:52:51.084Z,23.6
2023-04-02T01:53:53.304Z,23.6
2023-04-02T01:54:55.392Z,23.6
2023-04-02T01:55:57.480Z,23.7
2023-04-02T01:56:59.593Z,23.6
2023-04-02T01:58:01.418Z,23.6
2023-04-02T01:59:03.493Z,23.7
2023-04-02T02:00:05.588Z,23.6
2023-04-02T02:01:07.756Z,23.6
2023-04-02T02:02:10.089Z,23.6
2023-04-02T02:03:12.188Z,23.6
2023-04-02T02:04:14.118Z,23.6
2023-04-02T02:05:16.234Z,23.6
2023-04-02T02:06:18.094Z,23.4
2023-04-02T02:07:20.197Z,23.7
2023-04-02T02:08:22.090Z,23.7
2023-04-02T02:09:24.252Z,23.7
2023-04-02T02:10:26.474Z,23.7
2023-04-02T02:11:28.209Z,23.6
2023-04-02T02:12:30.294Z,23.6
2023-04-02T02:13:32.385Z,23.6
2023-04-02T02:14:34.130Z,23.7
2023-04-02T02:15:36.461Z,23.6
2023-04-02T02:16:39.109Z,23.8
2023-04-02T02:17:41.063Z,23.8
2023-04-02T02:18:43.014Z,23.4
2023-04-02T02:19:45.114Z,23.6
2023-04-02T02:20:46.801Z,23.4
2023-04-02T02:21:48.699Z,23.4
2023-04-02T02:22:50.650Z,23.9
2023-04-02T02:23:52.771Z,23.6
2023-04-02T02:24:55.037Z,23.6
2023-04-02T02:25:56.914Z,23.4
2023-04-02T02:26:59.011Z,23.7
2023-04-02T02:28:00.931Z,23.6
2023-04-02T02:29:03.049Z,23.5
2023-04-02T02:30:04.992Z,23.7
2023-04-02T02:31:06.898Z,23.5
2023-04-02T02:32:08.840Z,23.6
2023-04-02T02:33:11.158Z,23.7
2023-04-02T02:34:13.040Z,23.6
2023-04-02T02:35:14.773Z,23.8
2023-04-02T02:36:16.718Z,23.7
2023-04-02T02:37:18.730Z,23.6
2023-04-02T02:38:20.838Z,23.6
2023-04-02T02:39:22.740Z,23.7
2023-04-02T02:40:24.986Z,23.5
2023-04-02T02:41:26.594Z,23.5
2023-04-02T02:42:28.668Z,23.6
2023-04-02T02:43:30.587Z,23.4
2023-04-02T02:44:32.477Z,23.6
2023-04-02T02:45:34.717Z,23.5
2023-04-02T02:46:38.465Z,23.4
2023-04-02T02:47:40.629Z,23.7
2023-04-02T02:48:42.738Z,23.5
2023-04-02T02:49:44.823Z,23.5
2023-04-02T02:50:47.141Z,23.5
2023-04-02T02:51:49.271Z,23.6
2023-04-02T02:52:51.388Z,23.7
2023-04-02T02:53:53.482Z,23.4
2023-04-02T02:54:55.603Z,23.5
2023-04-02T02:55:57.790Z,23.7
2023-04-02T02:56:59.903Z,23.7
2023-04-02T02:58:02.035Z,23.8
2023-04-02T02:59:04.092Z,23.6
2023-04-02T03:00:05.994Z,23.7
2023-04-02T03:01:07.976Z,23.5
2023-04-02T03:02:10.449Z,23.4
2023-04-02T03:03:12.722Z,23.3
2023-04-02T03:04:15.729Z,23.5
2023-04-02T03:05:18.182Z,23.9
2023-04-02T03:06:20.311Z,23.5
2023-04-02T03:07:22.624Z,23.8
2023-04-02T03:08:24.704Z,23.8
2023-04-02T03:09:26.395Z,23.7
2023-04-02T03:10:28.290Z,23.6
2023-04-02T03:11:30.327Z,23.5
2023-04-02T03:12:32.267Z,23.6
2023-04-02T03:13:33.870Z,23.4
2023-04-02T03:14:35.614Z,23.9
2023-04-02T03:15:37.740Z,23.9
2023-04-02T03:16:40.386Z,23.6
2023-04-02T03:17:42.295Z,23.6
2023-04-02T03:18:44.407Z,23.5
2023-04-02T03:19:46.552Z,23.6
2023-04-02T03:20:48.480Z,23.3
2023-04-02T03:21:50.430Z,23.6
2023-04-02T03:22:52.342Z,23.4
2023-04-02T03:23:54.289Z,23.5
2023-04-02T03:24:56.388Z,23.5
2023-04-02T03:25:58.479Z,23.6
2023-04-02T03:27:00.687Z,23.5
2023-04-02T03:28:02.817Z,23.4
2023-04-02T03:29:04.771Z,23.4
2023-04-02T03:30:06.931Z,23.5
2023-04-02T03:31:08.889Z,23.7
2023-04-02T03:32:10.903Z,23.7
2023-04-02T03:33:13.020Z,23.4
2023-04-02T03:34:15.112Z,23.4
2023-04-02T03:35:17.010Z,23.4
2023-04-02T03:36:19.126Z,23.3
2023-04-02T03:37:21.555Z,23.5
2023-04-02T03:38:23.664Z,23.6
2023-04-02T03:39:25.750Z,23.4
2023-04-02T03:40:27.510Z,23.5
2023-04-02T03:41:29.594Z,23.6
2023-04-02T03:42:31.806Z,23.4
2023-04-02T03:43:33.678Z,23.8
2023-04-02T03:44:35.615Z,23.5
2023-04-02T03:45:37.566Z,23.3
2023-04-02T03:46:39.687Z,23.5
2023-04-02T03:47:42.058Z,23.5
2023-04-02T03:48:43.981Z,23.4
2023-04-02T03:49:46.051Z,23.7
2023-04-02T03:50:47.950Z,23.3
2023-04-02T03:51:50.042Z,23.1
2023-04-02T03:52:52.139Z,23.5
2023-04-02T03:53:54.022Z,23.5
2023-04-02T03:54:56.101Z,23.3
2023-04-02T03:55:58.045Z,23.6
2023-04-02T03:56:59.962Z,23.4
2023-04-02T03:58:02.364Z,23.4
2023-04-02T03:59:04.523Z,23.3
2023-04-02T04:00:06.427Z,23.6
2023-04-02T04:01:08.588Z,23.5
2023-04-02T04:02:10.721Z,23.5
2023-04-02T04:03:12.831Z,23.5
2023-04-02T04:04:14.871Z,23.4
2023-04-02T04:05:17.493Z,23.5
2023-04-02T04:06:20.220Z,23.4
2023-04-02T04:07:23.061Z,23.4
2023-04-02T04:08:25.174Z,23.6
2023-04-02T04:09:27.325Z,23.5
2023-04-02T04:10:29.416Z,23.4
2023-04-02T04:11:31.492Z,23.2
2023-04-02T04:12:33.373Z,23.4
2023-04-02T04:13:35.556Z,23.4
2023-04-02T04:14:37.483Z,23.3
2023-04-02T04:15:39.343Z,23.5
2023-04-02T04:16:41.508Z,23.2
2023-04-02T04:17:43.486Z,23.3
2023-04-02T04:18:45.704Z,23.1
2023-04-02T04:19:47.800Z,23.5
2023-04-02T04:20:49.692Z,23.3
2023-04-02T04:21:51.793Z,23.5
2023-04-02T04:22:53.897Z,23.1
2023-04-02T04:23:56.032Z,23.4
2023-04-02T04:24:58.111Z,23.3
2023-04-02T04:26:00.173Z,23.3
2023-04-02T04:27:02.259Z,23.2
2023-04-02T04:28:04.337Z,23.2
2023-04-02T04:29:06.742Z,23.3
2023-04-02T04:30:08.606Z,23.2
2023-04-02T04:31:10.491Z,23.2
2023-04-02T04:32:12.579Z,23.1
2023-04-02T04:33:15.324Z,23.1
2023-04-02T04:34:17.419Z,23.2
2023-04-02T04:35:19.338Z,23.1
2023-04-02T04:36:21.015Z,23.2
2023-04-02T04:37:22.520Z,23.2
2023-04-02T04:38:24.606Z,23.3
2023-04-02T04:39:26.338Z,23.1
2023-04-02T04:40:28.287Z,23.1
2023-04-02T04:41:30.186Z,23
2023-04-02T04:42:32.283Z,23.4
2023-04-02T04:43:34.395Z,23.1
2023-04-02T04:44:36.593Z,23.1
2023-04-02T04:45:38.680Z,23.4
2023-04-02T04:46:40.735Z,23.1
2023-04-02T04:47:42.835Z,23.2
2023-04-02T04:48:45.239Z,23.4
2023-04-02T04:49:47.368Z,23.1
2023-04-02T04:50:49.479Z,23
2023-04-02T04:51:51.423Z,23.1
2023-04-02T04:52:53.538Z,23.2
2023-04-02T04:53:55.420Z,23.2
2023-04-02T04:54:57.208Z,23
2023-04-02T04:56:03.506Z,23.3
2023-04-02T04:57:04.148Z,23.1
2023-04-02T04:58:06.394Z,23
2023-04-02T04:59:08.510Z,23.2
2023-04-02T05:00:10.742Z,23.3
2023-04-02T05:01:12.639Z,23.1
2023-04-02T05:02:14.777Z,23.1
2023-04-02T05:03:16.691Z,23.1
2023-04-02T05:04:18.886Z,23.5
2023-04-02T05:05:21.307Z,23
2023-04-02T05:06:23.473Z,23.3
2023-04-02T05:07:25.630Z,23.1
2023-04-02T05:08:27.545Z,23
2023-04-02T05:09:29.656Z,23.1
2023-04-02T05:10:31.831Z,23
2023-04-02T05:11:33.945Z,23.3
2023-04-02T05:12:35.854Z,23
2023-04-02T05:13:37.970Z,23.2
2023-04-02T05:14:40.112Z,23
2023-04-02T05:15:42.421Z,23.1
2023-04-02T05:16:44.712Z,22.9
2023-04-02T05:17:46.869Z,23.4
2023-04-02T05:18:49.327Z,23
2023-04-02T05:19:51.447Z,23.2
2023-04-02T05:20:53.593Z,23
2023-04-02T05:21:55.718Z,23.2
2023-04-02T05:22:57.847Z,23
2023-04-02T05:23:59.529Z,23.1
2023-04-02T05:25:01.404Z,23.3
2023-04-02T05:26:03.567Z,23.1
2023-04-02T05:27:05.516Z,23.1
2023-04-02T05:28:07.458Z,23.1
2023-04-02T05:29:09.378Z,23
2023-04-02T05:30:11.106Z,23.2
2023-04-02T05:31:13.416Z,22.8
2023-04-02T05:32:15.545Z,23.1
2023-04-02T05:33:17.461Z,23.2
2023-04-02T05:34:19.575Z,23.1
2023-04-02T05:35:21.692Z,22.9
2023-04-02T05:36:23.875Z,23.4
2023-04-02T05:37:26.320Z,23.1
2023-04-02T05:38:28.214Z,23.2
2023-04-02T05:39:30.102Z,23.2
2023-04-02T05:40:32.280Z,23.1
2023-04-02T05:41:34.758Z,23
2023-04-02T05:42:37.180Z,22.9
2023-04-02T05:43:39.153Z,23
2023-04-02T05:44:41.045Z,23
2023-04-02T05:45:42.754Z,23.1
2023-04-02T05:46:44.995Z,23.2
2023-04-02T05:47:47.248Z,23
2023-04-02T05:48:49.666Z,23.1
2023-04-02T05:49:51.613Z,23.1
2023-04-02T05:50:53.796Z,23.1
2023-04-02T05:51:57.486Z,23
2023-04-02T05:52:59.685Z,23.1
2023-04-02T05:54:01.814Z,23.1
2023-04-02T05:55:03.748Z,23.1
2023-04-02T05:56:05.899Z,23.2
2023-04-02T05:57:07.774Z,22.9
2023-04-02T05:59:15.223Z,23.3
2023-04-02T06:00:17.424Z,23
2023-04-02T06:01:19.533Z,23
2023-04-02T06:02:21.685Z,23
2023-04-02T06:03:24.257Z,23.1
2023-04-02T06:04:27.057Z,23
2023-04-02T06:05:29.087Z,23.1
2023-04-02T06:06:30.829Z,23
2023-04-02T06:07:32.959Z,23.1
2023-04-02T06:08:35.075Z,23.1
2023-04-02T06:09:37.264Z,23
2023-04-02T06:10:39.413Z,23.2
2023-04-02T06:11:41.313Z,23.1
2023-04-02T06:12:43.301Z,23
2023-04-02T06:13:45.439Z,23
2023-04-02T06:14:47.566Z,23
2023-04-02T06:15:49.668Z,23
2023-04-02T06:16:51.666Z,23.2
2023-04-02T06:17:54.229Z,23.1
2023-04-02T06:18:56.634Z,23
2023-04-02T06:19:58.758Z,23
2023-04-02T06:21:00.726Z,22.9
2023-04-02T06:22:02.854Z,23.1
2023-04-02T06:23:04.764Z,22.9
2023-04-02T06:24:06.877Z,23
2023-04-02T06:25:09.100Z,23.2
2023-04-02T06:26:11.289Z,23
2023-04-02T06:27:13.427Z,23.1
2023-04-02T06:28:15.607Z,23
2023-04-02T06:29:17.733Z,23.3
2023-04-02T06:30:19.893Z,23.1
2023-04-02T06:31:22.103Z,23
2023-04-02T06:32:24.390Z,23
2023-04-02T06:33:26.788Z,23.1
2023-04-02T06:34:28.759Z,23.1
2023-04-02T06:35:30.742Z,23.1
2023-04-02T06:36:32.655Z,23.1
2023-04-02T06:37:34.572Z,23
2023-04-02T06:38:36.739Z,23
2023-04-02T06:39:38.867Z,23
2023-04-02T06:40:40.803Z,23
2023-04-02T06:41:42.693Z,23
2023-04-02T06:42:44.625Z,23.1
2023-04-02T06:43:46.799Z,23.1
2023-04-02T06:44:48.926Z,23.1
2023-04-02T06:45:51.077Z,23
2023-04-02T06:46:53.474Z,23.1
2023-04-02T06:47:55.624Z,23
2023-04-02T06:48:58.050Z,23.1
2023-04-02T06:49:59.972Z,23
2023-04-02T06:51:01.955Z,23
2023-04-02T06:52:04.175Z,23.1
2023-04-02T06:53:06.296Z,23
2023-04-02T06:54:08.420Z,23
2023-04-02T06:55:10.156Z,23
2023-04-02T06:56:12.173Z,23
2023-04-02T06:57:14.409Z,23.1
2023-04-02T06:58:16.734Z,23.1
2023-04-02T06:59:18.966Z,23
2023-04-02T07:00:21.118Z,22.9
2023-04-02T07:01:23.063Z,23.2
2023-04-02T07:02:25.399Z,23
2023-04-02T07:03:27.724Z,23.1
2023-04-02T07:04:30.043Z,23
2023-04-02T07:05:32.338Z,23.1
2023-04-02T07:06:35.422Z,23
2023-04-02T07:07:37.552Z,23
2023-04-02T07:08:39.283Z,23
2023-04-02T07:09:41.434Z,22.9
2023-04-02T07:10:43.221Z,23
2023-04-02T07:11:45.410Z,23.1
2023-04-02T07:12:47.525Z,23
2023-04-02T07:13:49.694Z,23
2023-04-02T07:14:51.700Z,23
2023-04-02T07:15:53.829Z,23
2023-04-02T07:16:57.533Z,23.1
2023-04-02T07:17:59.698Z,23
2023-04-02T07:19:01.905Z,23
2023-04-02T07:20:04.115Z,23
2023-04-02T07:21:06.229Z,23
2023-04-02T07:22:08.365Z,23.1
2023-04-02T07:23:10.470Z,23
2023-04-02T07:24:12.600Z,23.1
2023-04-02T07:25:14.733Z,23
2023-04-02T07:26:16.875Z,23
2023-04-02T07:27:18.976Z,23
2023-04-02T07:28:22.495Z,23
2023-04-02T07:29:25.077Z,23.2
2023-04-02T07:30:27.022Z,23
2023-04-02T07:31:29.177Z,23
2023-04-02T07:32:31.675Z,23
2023-04-02T07:33:33.955Z,23
2023-04-02T07:34:36.113Z,22.9
2023-04-02T07:35:38.649Z,23
2023-04-02T07:36:41.025Z,23
2023-04-02T07:37:43.144Z,23
2023-04-02T07:38:45.243Z,23
2023-04-02T07:39:47.505Z,23
2023-04-02T07:40:49.613Z,22.9
2023-04-02T07:41:51.542Z,23
2023-04-02T07:42:53.653Z,22.9
2023-04-02T07:43:55.796Z,23.1
2023-04-02T07:44:57.798Z,23
2023-04-02T07:45:59.933Z,23
2023-04-02T07:47:02.093Z,22.9
2023-04-02T07:48:04.704Z,22.9
2023-04-02T07:49:06.992Z,23
2023-04-02T07:50:09.237Z,22.9
2023-04-02T07:51:11.530Z,23
2023-04-02T07:52:13.231Z,23
2023-04-02T07:53:15.320Z,22.9
2023-04-02T07:54:17.455Z,23
2023-04-02T07:55:19.558Z,23
2023-04-02T07:56:21.667Z,22.9
2023-04-02T07:57:23.620Z,23
2023-04-02T07:58:25.933Z,23
2023-04-02T07:59:27.843Z,23
2023-04-02T08:00:30.023Z,22.9
2023-04-02T08:01:32.283Z,23
2023-04-02T08:02:34.481Z,23
2023-04-02T08:03:36.886Z,23
2023-04-02T08:04:39.751Z,23
2023-04-02T08:05:41.875Z,23
2023-04-02T08:06:44.258Z,23.1
2023-04-02T08:07:51.306Z,23
2023-04-02T08:08:53.465Z,22.9
2023-04-02T08:09:55.384Z,23.1
2023-04-02T08:10:57.487Z,23
2023-04-02T08:11:59.602Z,23
2023-04-02T08:13:01.741Z,23
2023-04-02T08:14:03.892Z,23.1
2023-04-02T08:15:06.016Z,23.1
2023-04-02T08:16:08.005Z,23
2023-04-02T08:17:10.099Z,23
2023-04-02T08:18:12.233Z,22.9
2023-04-02T08:19:14.162Z,22.9
2023-04-02T08:20:16.098Z,23
2023-04-02T08:21:18.253Z,23.1
2023-04-02T08:22:20.499Z,23.1
2023-04-02T08:23:22.658Z,23.1
2023-04-02T08:24:24.600Z,23
2023-04-02T08:25:26.536Z,23
2023-04-02T08:26:28.731Z,22.8
2023-04-02T08:27:30.858Z,22.9
2023-04-02T08:28:32.966Z,23.1
2023-04-02T08:29:35.101Z,23
2023-04-02T08:30:37.028Z,23
2023-04-02T08:31:39.361Z,22.8
2023-04-02T08:32:41.364Z,23
2023-04-02T08:33:43.514Z,22.9
2023-04-02T08:34:45.639Z,23
2023-04-02T08:35:47.794Z,23
2023-04-02T08:36:50.171Z,23.1
2023-04-02T08:37:52.385Z,22.9
2023-04-02T08:38:54.511Z,23
2023-04-02T08:39:56.613Z,23.1
2023-04-02T08:40:58.350Z,23
2023-04-02T08:42:00.568Z,23
2023-04-02T08:43:02.713Z,23
2023-04-02T08:44:04.799Z,22.9
2023-04-02T08:45:21.028Z,22.9
2023-04-02T08:46:11.737Z,23
2023-04-02T08:47:14.208Z,22.9
2023-04-02T08:48:16.147Z,23.1
2023-04-02T08:49:18.308Z,23
2023-04-02T08:50:20.448Z,23
2023-04-02T08:51:22.547Z,22.9
2023-04-02T08:52:24.674Z,23
2023-04-02T08:53:26.977Z,22.9
2023-04-02T08:54:29.325Z,23
2023-04-02T08:55:31.795Z,22.9
2023-04-02T08:56:34.636Z,23
2023-04-02T08:57:36.380Z,22.9
2023-04-02T08:58:38.479Z,22.9
2023-04-02T08:59:40.446Z,22.9
2023-04-02T09:00:42.600Z,23
2023-04-02T09:01:44.702Z,23
2023-04-02T09:02:47.010Z,22.9
2023-04-02T09:03:49.473Z,22.9
2023-04-02T09:04:51.727Z,22.9
2023-04-02T09:05:54.092Z,22.9
2023-04-02T09:06:56.211Z,22.8
2023-04-02T09:07:58.330Z,22.8
2023-04-02T09:09:00.552Z,23
2023-04-02T09:10:02.491Z,23
2023-04-02T09:11:04.581Z,22.8
2023-04-02T09:12:06.743Z,22.7
2023-04-02T09:13:08.845Z,22.8
2023-04-02T09:14:10.947Z,22.9
2023-04-02T09:15:13.269Z,23
2023-04-02T09:16:15.441Z,22.9
2023-04-02T09:17:17.652Z,22.9
2023-04-02T09:18:19.562Z,22.9
2023-04-02T09:19:21.850Z,22.9
2023-04-02T09:20:24.252Z,22.8
2023-04-02T09:21:26.502Z,22.9
2023-04-02T09:22:28.421Z,23
2023-04-02T09:23:30.635Z,23
2023-04-02T09:24:32.670Z,23
2023-04-02T09:25:35.132Z,23
2023-04-02T09:26:38.479Z,22.9
2023-04-02T09:27:40.376Z,22.9
2023-04-02T09:28:42.267Z,22.9
2023-04-02T09:29:44.175Z,23
2023-04-02T09:30:46.121Z,23
2023-04-02T09:31:48.228Z,23
2023-04-02T09:32:50.309Z,22.9
2023-04-02T09:33:52.380Z,23
2023-04-02T09:34:54.108Z,23
2023-04-02T09:35:56.264Z,22.9
2023-04-02T09:36:58.533Z,22.9
2023-04-02T09:38:00.446Z,22.9
2023-04-02T09:39:02.594Z,23
2023-04-02T09:40:04.815Z,23
2023-04-02T09:41:06.920Z,22.8
2023-04-02T09:42:09.050Z,22.9
2023-04-02T09:43:10.939Z,23
2023-04-02T09:44:12.863Z,23
2023-04-02T09:45:14.996Z,23
2023-04-02T09:46:16.726Z,23
2023-04-02T09:47:18.941Z,23
2023-04-02T09:48:20.842Z,23
2023-04-02T09:49:22.925Z,23
2023-04-02T09:50:25.086Z,23
2023-04-02T09:51:27.200Z,22.9
2023-04-02T09:52:29.324Z,22.9
2023-04-02T09:53:31.209Z,23
2023-04-02T09:54:33.133Z,23.1
2023-04-02T09:55:35.416Z,22.9
2023-04-02T09:56:38.490Z,22.9
2023-04-02T09:57:40.428Z,22.9
2023-04-02T09:58:42.125Z,23
2023-04-02T09:59:44.026Z,22.9
2023-04-02T10:00:46.351Z,22.8
2023-04-02T10:01:49.143Z,22.9
2023-04-02T10:02:51.330Z,22.8
2023-04-02T10:03:53.663Z,22.8
2023-04-02T10:04:55.963Z,22.9
2023-04-02T10:05:57.895Z,23
2023-04-02T10:07:00.017Z,23
2023-04-02T10:08:01.935Z,23
2023-04-02T10:09:04.097Z,22.9
2023-04-02T10:10:06.195Z,23
2023-04-02T10:11:08.489Z,22.9
2023-04-02T10:12:10.602Z,23.1
2023-04-02T10:13:12.488Z,23
2023-04-02T10:14:14.595Z,22.9
2023-04-02T10:15:16.468Z,23
2023-04-02T10:16:18.602Z,22.8
2023-04-02T10:17:20.921Z,22.9
2023-04-02T10:18:23.144Z,22.9
2023-04-02T10:19:25.048Z,22.9
2023-04-02T10:20:27.208Z,22.9
2023-04-02T10:21:33.947Z,22.8
2023-04-02T10:22:35.861Z,22.8
2023-04-02T10:23:38.001Z,23
2023-04-02T10:24:40.176Z,23.1
2023-04-02T10:25:42.246Z,22.9
2023-04-02T10:26:44.477Z,22.9
2023-04-02T10:27:46.390Z,22.8
2023-04-02T10:28:48.481Z,22.9
2023-04-02T10:29:50.600Z,23
2023-04-02T10:30:52.739Z,22.8
2023-04-02T10:31:54.844Z,23
2023-04-02T10:32:56.794Z,22.8
2023-04-02T10:33:59.185Z,22.8
2023-04-02T10:35:01.295Z,22.9
2023-04-02T10:36:03.457Z,22.9
2023-04-02T10:37:05.869Z,22.8
2023-04-02T10:38:08.005Z,23
2023-04-02T10:39:10.355Z,23
2023-04-02T10:40:12.600Z,23.1
2023-04-02T10:41:14.644Z,23
2023-04-02T10:42:16.859Z,22.9
2023-04-02T10:43:18.965Z,22.9
2023-04-02T10:44:21.000Z,23
2023-04-02T10:45:23.128Z,23
2023-04-02T10:46:25.454Z,22.8
2023-04-02T10:47:28.026Z,23
2023-04-02T10:48:30.021Z,22.9
2023-04-02T10:49:32.150Z,22.9
2023-04-02T10:50:34.305Z,22.9
2023-04-02T10:51:36.486Z,22.9
2023-04-02T10:52:38.635Z,22.9
2023-04-02T10:53:40.799Z,23
2023-04-02T10:54:42.898Z,22.9
2023-04-02T10:55:45.028Z,23
2023-04-02T10:56:50.895Z,23
2023-04-02T10:57:52.164Z,22.8
2023-04-02T10:58:56.191Z,23
2023-04-02T10:59:59.464Z,22.9
2023-04-02T11:01:01.829Z,23
2023-04-02T11:02:03.723Z,23.1
2023-04-02T11:03:05.786Z,23
2023-04-02T11:04:08.592Z,23
2023-04-02T11:05:10.705Z,23
2023-04-02T11:06:13.156Z,23.1
2023-04-02T11:07:15.278Z,23.2
2023-04-02T11:08:17.198Z,23.2
2023-04-02T11:09:18.920Z,23.2
2023-04-02T11:10:20.838Z,23.1
2023-04-02T11:11:22.995Z,23.1
2023-04-02T11:12:24.907Z,23.4
2023-04-02T11:13:27.058Z,23.2
2023-04-02T11:14:29.275Z,23.2
2023-04-02T11:15:31.188Z,23
2023-04-02T11:16:33.418Z,23.3
2023-04-02T11:17:41.487Z,23.2
2023-04-02T11:18:43.841Z,23.3
2023-04-02T11:19:45.978Z,23.1
2023-04-02T11:20:47.916Z,23
2023-04-02T11:21:57.683Z,23.2
2023-04-02T11:22:54.989Z,23.1
2023-04-02T11:23:57.120Z,23
2023-04-02T11:24:59.335Z,23.2
2023-04-02T11:26:01.295Z,23.2
2023-04-02T11:27:03.193Z,23.1
2023-04-02T11:28:04.922Z,23.2
2023-04-02T11:29:06.830Z,23.2
2023-04-02T11:30:08.852Z,23
2023-04-02T11:31:11.203Z,23.2
2023-04-02T11:32:13.267Z,23.1
2023-04-02T11:33:17.012Z,23.1
2023-04-02T11:34:20.379Z,23.1
2023-04-02T11:35:22.486Z,23.1
2023-04-02T11:36:24.590Z,23.1
2023-04-02T11:37:26.583Z,23.1
2023-04-02T11:38:28.663Z,23
2023-04-02T11:39:30.448Z,23.1
2023-04-02T11:40:32.523Z,23.1
2023-04-02T11:41:34.401Z,23.1
2023-04-02T11:42:36.499Z,23.2
2023-04-02T11:43:38.499Z,23
2023-04-02T11:44:40.214Z,23.1
2023-04-02T11:45:50.233Z,23.1
2023-04-02T11:46:47.397Z,23.1
2023-04-02T11:47:49.712Z,23.1
2023-04-02T11:48:52.524Z,23
2023-04-02T11:49:54.802Z,23.1
2023-04-02T11:50:57.566Z,23.1
2023-04-02T11:52:11.223Z,23
2023-04-02T11:53:05.120Z,23
2023-04-02T11:54:07.247Z,23.2
2023-04-02T11:55:09.427Z,23.2
2023-04-02T11:56:11.360Z,23.1
2023-04-02T11:57:13.281Z,23
2023-04-02T11:58:15.625Z,23.2
2023-04-02T11:59:17.570Z,23.1
2023-04-02T12:00:19.514Z,23.1
2023-04-02T12:01:21.805Z,23.1
2023-04-02T12:02:23.807Z,23.2
2023-04-02T12:03:26.423Z,23.1
2023-04-02T12:04:28.494Z,23
2023-04-02T12:05:30.081Z,23.1
2023-04-02T12:06:32.148Z,23
2023-04-02T12:07:34.260Z,23
2023-04-02T12:08:44.414Z,23.1
2023-04-02T12:09:41.312Z,23
2023-04-02T12:10:43.264Z,23.2
2023-04-02T12:11:45.369Z,23.1
2023-04-02T12:12:47.339Z,23.2
2023-04-02T12:13:49.457Z,23.1
2023-04-02T12:14:51.591Z,23.1
2023-04-02T12:15:53.556Z,23.2
2023-04-02T12:16:55.994Z,23
2023-04-02T12:17:58.384Z,23.1
2023-04-02T12:19:00.241Z,23.2
2023-04-02T12:20:04.410Z,23
2023-04-02T12:21:07.377Z,23
2023-04-02T12:22:09.074Z,23
2023-04-02T12:23:10.972Z,23.1
2023-04-02T12:24:13.088Z,23
2023-04-02T12:25:14.806Z,23.1
2023-04-02T12:26:16.728Z,23.1
2023-04-02T12:27:18.833Z,23.2
2023-04-02T12:28:20.752Z,22.9
2023-04-02T12:29:22.650Z,23.1
2023-04-02T12:30:24.549Z,23.1
2023-04-02T12:31:26.728Z,23
2023-04-02T12:32:30.087Z,23
2023-04-02T12:33:32.696Z,23.1
2023-04-02T12:34:34.940Z,23.1
2023-04-02T12:35:37.017Z,23
2023-04-02T12:36:38.933Z,23.1
2023-04-02T12:37:41.159Z,23
2023-04-02T12:38:43.054Z,22.9
2023-04-02T12:39:45.167Z,22.9
2023-04-02T12:40:47.296Z,23.1
2023-04-02T12:41:49.199Z,23.1
2023-04-02T12:42:51.391Z,23
2023-04-02T12:43:53.268Z,23.1
2023-04-02T12:44:55.369Z,23.1
2023-04-02T12:45:57.473Z,23
2023-04-02T12:46:59.200Z,23
2023-04-02T12:48:01.505Z,23
2023-04-02T12:49:03.817Z,23.1
2023-04-02T12:50:05.925Z,23.1
2023-04-02T12:51:08.190Z,23.1
2023-04-02T12:52:10.288Z,23.1
2023-04-02T12:53:12.023Z,23
2023-04-02T12:54:13.963Z,23
2023-04-02T12:55:16.067Z,23.1
2023-04-02T12:56:18.165Z,23.1
2023-04-02T12:57:20.317Z,23.1
2023-04-02T12:58:22.312Z,23.1
2023-04-02T12:59:24.468Z,23.1
2023-04-02T13:00:26.612Z,23.1
2023-04-02T13:01:28.791Z,23.1
2023-04-02T13:02:30.858Z,22.9
2023-04-02T13:03:33.245Z,23.1
2023-04-02T13:04:35.528Z,23.1
2023-04-02T13:05:37.637Z,23
2023-04-02T13:06:39.780Z,23
2023-04-02T13:07:41.502Z,23
2023-04-02T13:08:43.624Z,23
2023-04-02T13:09:45.812Z,23
2023-04-02T13:10:47.332Z,23
2023-04-02T13:11:49.059Z,23
2023-04-02T13:12:51.183Z,23.1
2023-04-02T13:13:53.121Z,23
2023-04-02T13:14:55.035Z,23.2
2023-04-02T13:15:57.155Z,23.1
2023-04-02T13:16:59.440Z,23
2023-04-02T13:18:01.571Z,23
2023-04-02T13:19:04.094Z,23.1
2023-04-02T13:20:06.149Z,23.1
2023-04-02T13:21:08.268Z,23.2
2023-04-02T13:22:10.197Z,23.1
2023-04-02T13:23:12.278Z,23
2023-04-02T13:24:14.374Z,22.9
2023-04-02T13:25:16.267Z,23.1
2023-04-02T13:26:18.186Z,23
2023-04-02T13:27:20.337Z,23.1
2023-04-02T13:28:22.083Z,23
2023-04-02T13:29:23.994Z,23.2
2023-04-02T13:30:26.254Z,23
2023-04-02T13:31:27.984Z,23.2
2023-04-02T13:32:30.036Z,23.1
2023-04-02T13:33:32.149Z,23
2023-04-02T13:34:34.186Z,23.1
2023-04-02T13:35:36.163Z,23.2
2023-04-02T13:36:38.254Z,23.1
2023-04-02T13:37:40.418Z,23.2
2023-04-02T13:38:42.563Z,23.1
2023-04-02T13:39:44.304Z,23
2023-04-02T13:40:46.202Z,23.2
2023-04-02T13:41:48.309Z,23
2023-04-02T13:42:50.258Z,23.2
2023-04-02T13:43:52.424Z,23.1
2023-04-02T13:44:54.545Z,23.1
2023-04-02T13:45:56.448Z,23.1
2023-04-02T13:46:58.580Z,23
2023-04-02T13:48:00.472Z,23.1
2023-04-02T13:49:03.180Z,22.9
2023-04-02T13:50:05.429Z,23.1
2023-04-02T13:51:07.721Z,23.1
2023-04-02T13:52:09.843Z,23.2
2023-04-02T13:53:11.944Z,23.1
2023-04-02T13:54:14.084Z,23.1
2023-04-02T13:55:15.868Z,23.2
2023-04-02T13:56:17.805Z,23.4
2023-04-02T13:57:19.736Z,23.2
2023-04-02T13:58:22.049Z,23.5
2023-04-02T13:59:24.013Z,23.2
2023-04-02T14:00:26.186Z,23.4
2023-04-02T14:01:28.358Z,23.5
2023-04-02T14:02:30.726Z,23.4
2023-04-02T14:03:32.812Z,23.4